Time;durP1;ratioP1;P1;durP2;ratioP2;P2;SDS_P1;SDS_P2;PMS_P1;PMS_P2;Temp;Humidity;BMP_temperature;BMP_pressure;BME280_temperature;BME280_humidity;BME280_pressure;Samples;Min_cycle;Max_cycle;Signal;HPM_P1;HPM_P2
2022/09/16 00:00:57;;;;;;;1.97;1.90;;;;;;;;;;6275831;28;20024;-75
2022/09/16 00:03:58;;;;;;;2.87;2.30;;;;;;;;;;6279264;28;20049;-74
2022/09/16 00:06:58;;;;;;;1.93;1.30;;;;;;;;;;6274819;28;20048;-75
2022/09/16 00:09:58;;;;;;;0.47;0.47;;;;;;;;;;6276516;28;20496;-75
2022/09/16 00:12:58;;;;;;;6.13;3.60;;;;;;;;;;6277999;28;20041;-75
2022/09/16 00:15:58;;;;;;;4.35;2.00;;;;;;;;;;6253793;28;20030;-74
2022/09/16 00:18:59;;;;;;;2.03;1.30;;;;;;;;;;6267127;28;20389;-75
2022/09/16 00:21:59;;;;;;;1.60;1.50;;;;;;;;;;6290272;28;20039;-75
2022/09/16 00:25:00;;;;;;;2.35;2.15;;;;;;;;;;6251500;28;20013;-75
2022/09/16 00:28:00;;;;;;;1.55;1.15;;;;;;;;;;6267159;28;20024;-75
2022/09/16 00:31:01;;;;;;;2.70;2.00;;;;;;;;;;6271871;28;20041;-75
2022/09/16 00:34:01;;;;;;;7.20;2.97;;;;;;;;;;6282183;28;20028;-76
2022/09/16 00:37:07;;;;;;;13.23;3.47;;;;;;;;;;6272514;28;20021;-76
2022/09/16 00:40:08;;;;;;;3.45;1.85;;;;;;;;;;6271750;28;20021;-76
2022/09/16 00:43:09;;;;;;;2.43;2.23;;;;;;;;;;6267331;28;20032;-77
2022/09/16 00:46:09;;;;;;;3.83;3.53;;;;;;;;;;6270637;28;20278;-77
2022/09/16 00:49:13;;;;;;;5.57;5.10;;;;;;;;;;6266914;28;20480;-77
2022/09/16 00:52:15;;;;;;;1.83;1.73;;;;;;;;;;6273263;28;20072;-77
2022/09/16 00:55:18;;;;;;;2.35;2.05;;;;;;;;;;6269728;28;20083;-77
2022/09/16 00:58:38;;;;;;;1.45;1.45;;;;;;;;;;6260347;28;20025;-77
2022/09/16 01:01:39;;;;;;;2.78;1.83;;;;;;;;;;6270341;28;20017;-77
2022/09/16 01:04:43;;;;;;;2.63;2.53;;;;;;;;;;6274885;28;20059;-77
2022/09/16 01:07:44;;;;;;;2.83;2.58;;;;;;;;;;6277484;28;20111;-77
2022/09/16 01:10:45;;;;;;;;;;;;;;;;;;6286966;28;20075;-77
2022/09/16 01:13:45;;;;;;;1.15;1.05;;;;;;;;;;6282705;28;19912;-77
2022/09/16 01:17:12;;;;;;;1.43;1.33;;;;;;;;;;6271148;28;20021;-77
2022/09/16 01:20:18;;;;;;;2.42;2.30;;;;;;;;;;6223505;28;20025;-77
2022/09/16 01:23:30;;;;;;;1.52;1.38;;;;;;;;;;6270698;28;20021;-77
2022/09/16 01:26:33;;;;;;;2.08;1.70;;;;;;;;;;6264238;28;20020;-77
2022/09/16 01:29:52;;;;;;;3.90;2.30;;;;;;;;;;6254455;28;20064;-77
2022/09/16 01:33:00;;;;;;;0.65;0.65;;;;;;;;;;6249825;28;20013;-77
2022/09/16 01:36:13;;;;;;;2.13;1.67;;;;;;;;;;6271544;28;20032;-77
2022/09/16 01:39:28;;;;;;;0.95;0.95;;;;;;;;;;6266704;28;20047;-77
2022/09/16 01:42:50;;;;;;;3.03;2.63;;;;;;;;;;6258374;28;20017;-77
2022/09/16 01:45:55;;;;;;;1.38;1.30;;;;;;;;;;6253179;28;20049;-77
2022/09/16 01:48:58;;;;;;;0.98;0.98;;;;;;;;;;6262598;28;20028;-77
2022/09/16 01:52:18;;;;;;;2.30;2.10;;;;;;;;;;6253330;28;20013;-77
2022/09/16 01:55:23;;;;;;;2.88;2.67;;;;;;;;;;6264460;28;20025;-77
2022/09/16 01:58:31;;;;;;;6.43;2.65;;;;;;;;;;6249705;28;20556;-77
2022/09/16 02:01:34;;;;;;;16.67;2.22;;;;;;;;;;6264444;28;20158;-76
2022/09/16 02:04:47;;;;;;;5.93;3.65;;;;;;;;;;6243001;28;20040;-77
2022/09/16 02:07:49;;;;;;;3.45;2.78;;;;;;;;;;6268020;28;20074;-77
2022/09/16 02:10:52;;;;;;;0.70;0.70;;;;;;;;;;6269593;28;20099;-77
2022/09/16 02:14:02;;;;;;;5.35;4.57;;;;;;;;;;6251098;28;20465;-78
2022/09/16 02:17:07;;;;;;;4.65;2.72;;;;;;;;;;6241726;28;20017;-78
2022/09/16 02:20:13;;;;;;;1.05;1.00;;;;;;;;;;6282114;28;20013;-78
2022/09/16 02:23:15;;;;;;;4.28;3.90;;;;;;;;;;6284285;28;20408;-78
2022/09/16 02:26:18;;;;;;;3.17;3.03;;;;;;;;;;6265059;28;20018;-78
2022/09/16 02:29:20;;;;;;;1.08;1.05;;;;;;;;;;6265078;28;20473;-78
2022/09/16 02:32:23;;;;;;;5.07;4.57;;;;;;;;;;6240366;28;20041;-78
2022/09/16 02:35:25;;;;;;;2.00;1.90;;;;;;;;;;6239600;28;20144;-78
2022/09/16 02:38:29;;;;;;;5.47;2.38;;;;;;;;;;6240447;28;20480;-78
2022/09/16 02:41:30;;;;;;;1.80;1.70;;;;;;;;;;6245630;28;20033;-78
2022/09/16 02:44:30;;;;;;;1.97;1.80;;;;;;;;;;6244334;28;20044;-78
2022/09/16 02:47:36;;;;;;;2.87;1.00;;;;;;;;;;6249651;28;20095;-78
2022/09/16 02:50:39;;;;;;;0.70;0.70;;;;;;;;;;6246406;28;20025;-77
2022/09/16 02:53:44;;;;;;;2.58;2.40;;;;;;;;;;6242559;28;20215;-78
2022/09/16 02:56:45;;;;;;;4.60;4.15;;;;;;;;;;6245419;28;20021;-78
2022/09/16 02:59:45;;;;;;;2.80;2.63;;;;;;;;;;6257761;28;20527;-78
2022/09/16 03:02:45;;;;;;;7.23;4.77;;;;;;;;;;6257535;28;20527;-78
2022/09/16 03:06:02;;;;;;;2.17;2.03;;;;;;;;;;6249584;28;20033;-78
2022/09/16 03:09:04;;;;;;;1.70;1.60;;;;;;;;;;6254259;28;20025;-77
2022/09/16 03:12:13;;;;;;;2.08;1.92;;;;;;;;;;6228289;28;20030;-78
2022/09/16 03:15:13;;;;;;;3.03;2.83;;;;;;;;;;6252255;28;20033;-77
2022/09/16 03:18:16;;;;;;;5.25;4.88;;;;;;;;;;6249511;28;20480;-77
2022/09/16 03:21:28;;;;;;;1.55;1.48;;;;;;;;;;6264225;28;20056;-78
2022/09/16 03:24:34;;;;;;;4.85;3.30;;;;;;;;;;6250795;28;20442;-78
2022/09/16 03:27:37;;;;;;;3.72;2.83;;;;;;;;;;6254505;28;20469;-78
2022/09/16 03:30:41;;;;;;;2.70;2.35;;;;;;;;;;6260488;28;20492;-78
2022/09/16 03:33:46;;;;;;;2.60;2.40;;;;;;;;;;6282387;28;20431;-77
2022/09/16 03:36:49;;;;;;;4.93;3.13;;;;;;;;;;6278612;28;20473;-77
2022/09/16 03:39:51;;;;;;;1.92;1.83;;;;;;;;;;6269122;28;20416;-77
2022/09/16 03:42:52;;;;;;;1.67;1.58;;;;;;;;;;6257743;28;20017;-77
2022/09/16 03:45:52;;;;;;;2.70;2.07;;;;;;;;;;6272023;28;20032;-77
2022/09/16 03:48:52;;;;;;;3.17;2.97;;;;;;;;;;6266369;28;20108;-78
2022/09/16 03:51:52;;;;;;;1.20;1.20;;;;;;;;;;6256046;28;20476;-78
2022/09/16 03:54:52;;;;;;;1.35;1.33;;;;;;;;;;6279163;28;20049;-78
2022/09/16 03:57:53;;;;;;;2.03;1.93;;;;;;;;;;6261301;28;20088;-77
2022/09/16 04:00:53;;;;;;;2.10;2.00;;;;;;;;;;6264285;28;20017;-77
2022/09/16 04:03:55;;;;;;;4.40;3.60;;;;;;;;;;6274779;28;20072;-77
2022/09/16 04:06:55;;;;;;;1.40;1.30;;;;;;;;;;6286513;28;20024;-78
2022/09/16 04:09:55;;;;;;;0.33;0.33;;;;;;;;;;6281210;28;20063;-78
2022/09/16 04:12:56;;;;;;;2.53;2.20;;;;;;;;;;6268173;28;20025;-77
2022/09/16 04:15:57;;;;;;;2.45;2.28;;;;;;;;;;6251079;28;20108;-77
2022/09/16 04:18:57;;;;;;;3.70;3.50;;;;;;;;;;6288018;28;20021;-78
2022/09/16 04:21:57;;;;;;;3.37;3.17;;;;;;;;;;6280150;28;20020;-78
2022/09/16 04:24:58;;;;;;;3.97;3.77;;;;;;;;;;6253706;28;20070;-78
2022/09/16 04:27:58;;;;;;;2.13;2.03;;;;;;;;;;6266618;28;20044;-78
2022/09/16 04:31:03;;;;;;;4.10;3.80;;;;;;;;;;6261435;28;20099;-78
2022/09/16 04:34:03;;;;;;;3.63;3.33;;;;;;;;;;6246912;28;20035;-78
2022/09/16 04:37:04;;;;;;;3.53;3.33;;;;;;;;;;6247305;28;20024;-78
2022/09/16 04:40:04;;;;;;;3.00;2.80;;;;;;;;;;6250416;28;20347;-78
2022/09/16 04:43:04;;;;;;;5.80;2.77;;;;;;;;;;6251087;28;20026;-78
2022/09/16 04:46:05;;;;;;;1.07;1.07;;;;;;;;;;6276552;28;20036;-78
2022/09/16 04:49:05;;;;;;;2.30;2.20;;;;;;;;;;6272633;28;20082;-79
2022/09/16 04:52:06;;;;;;;1.83;1.40;;;;;;;;;;6280946;28;20044;-79
2022/09/16 04:55:06;;;;;;;2.75;2.28;;;;;;;;;;6272750;28;20055;-78
2022/09/16 04:58:06;;;;;;;2.93;2.63;;;;;;;;;;6272104;28;20434;-79
2022/09/16 05:01:11;;;;;;;3.42;1.88;;;;;;;;;;6263980;28;20027;-78
2022/09/16 05:04:11;;;;;;;3.55;3.35;;;;;;;;;;6267025;28;20033;-79
2022/09/16 05:07:11;;;;;;;1.10;1.00;;;;;;;;;;6267799;28;20096;-79
2022/09/16 05:10:12;;;;;;;3.20;2.70;;;;;;;;;;6265578;28;20039;-78
2022/09/16 05:13:12;;;;;;;1.53;1.43;;;;;;;;;;6254989;28;20025;-78
2022/09/16 05:16:16;;;;;;;0.60;0.60;;;;;;;;;;6258814;28;20468;-78
2022/09/16 05:19:16;;;;;;;2.72;2.53;;;;;;;;;;6271360;28;20068;-78
2022/09/16 05:22:17;;;;;;;0.38;0.38;;;;;;;;;;6262047;28;20376;-78
2022/09/16 05:25:17;;;;;;;1.30;1.20;;;;;;;;;;6282275;28;20032;-78
2022/09/16 05:28:17;;;;;;;2.60;1.80;;;;;;;;;;6272725;28;20029;-78
2022/09/16 05:31:17;;;;;;;2.13;1.90;;;;;;;;;;6266626;28;20045;-78
2022/09/16 05:34:20;;;;;;;1.45;1.33;;;;;;;;;;6235008;28;20037;-78
2022/09/16 05:37:20;;;;;;;0.57;0.57;;;;;;;;;;6259877;28;20028;-78
2022/09/16 05:40:21;;;;;;;4.03;1.80;;;;;;;;;;6264954;28;20017;-78
2022/09/16 05:43:22;;;;;;;1.05;1.05;;;;;;;;;;6262390;28;20036;-78
2022/09/16 05:46:23;;;;;;;2.53;1.80;;;;;;;;;;6269146;28;20029;-76
2022/09/16 05:49:23;;;;;;;2.42;2.28;;;;;;;;;;6271087;28;20510;-76
2022/09/16 05:52:24;;;;;;;1.67;1.57;;;;;;;;;;6282752;28;20025;-76
2022/09/16 05:55:25;;;;;;;1.90;1.80;;;;;;;;;;6271558;28;20058;-76
2022/09/16 05:58:26;;;;;;;9.35;1.65;;;;;;;;;;6273215;28;20047;-76
2022/09/16 06:01:28;;;;;;;1.90;1.75;;;;;;;;;;6259808;28;20017;-76
2022/09/16 06:04:28;;;;;;;0.60;0.60;;;;;;;;;;6264113;28;20021;-76
2022/09/16 06:07:28;;;;;;;0.88;0.88;;;;;;;;;;6250146;28;20366;-76
2022/09/16 06:10:29;;;;;;;1.25;1.15;;;;;;;;;;6259069;28;20032;-76
2022/09/16 06:13:29;;;;;;;8.80;1.83;;;;;;;;;;6260948;28;20423;-76
2022/09/16 06:16:32;;;;;;;3.23;1.37;;;;;;;;;;6245163;28;20032;-76
2022/09/16 06:19:33;;;;;;;1.13;0.60;;;;;;;;;;6268760;28;20040;-76
2022/09/16 06:22:33;;;;;;;0.77;0.60;;;;;;;;;;6262998;28;20044;-76
2022/09/16 06:25:33;;;;;;;1.45;1.38;;;;;;;;;;6270451;28;20041;-77
2022/09/16 06:28:34;;;;;;;1.17;1.17;;;;;;;;;;6252004;28;20059;-77
2022/09/16 06:31:36;;;;;;;0.30;0.30;;;;;;;;;;6266825;28;20041;-77
2022/09/16 06:34:36;;;;;;;0.63;0.63;;;;;;;;;;6262500;28;20029;-77
2022/09/16 06:37:36;;;;;;;0.60;0.60;;;;;;;;;;6259630;28;20032;-77
2022/09/16 06:40:37;;;;;;;1.67;1.63;;;;;;;;;;6240963;28;20029;-77
2022/09/16 06:43:37;;;;;;;1.05;1.05;;;;;;;;;;6251596;28;20013;-77
2022/09/16 06:46:37;;;;;;;3.23;2.37;;;;;;;;;;6250065;28;20071;-77
2022/09/16 06:49:38;;;;;;;2.97;1.23;;;;;;;;;;6265220;28;20017;-77
2022/09/16 06:52:38;;;;;;;1.63;1.53;;;;;;;;;;6261372;28;20433;-78
2022/09/16 06:55:38;;;;;;;1.92;1.83;;;;;;;;;;6261915;28;20621;-77
2022/09/16 06:58:40;;;;;;;1.27;1.17;;;;;;;;;;6248362;28;20059;-78
2022/09/16 07:01:40;;;;;;;;;;;;;;;;;;6263892;28;20009;-78
2022/09/16 07:04:40;;;;;;;0.50;0.40;;;;;;;;;;6265499;28;20162;-78
2022/09/16 07:07:40;;;;;;;2.00;1.53;;;;;;;;;;6255803;28;20025;-77
2022/09/16 07:10:41;;;;;;;1.15;1.10;;;;;;;;;;6272808;28;20365;-77
2022/09/16 07:13:41;;;;;;;1.37;1.27;;;;;;;;;;6268593;28;20013;-77
2022/09/16 07:16:42;;;;;;;0.73;0.60;;;;;;;;;;6272961;28;20082;-77
2022/09/16 07:19:43;;;;;;;1.60;1.50;;;;;;;;;;6269264;28;20009;-77
2022/09/16 07:22:43;;;;;;;0.70;0.45;;;;;;;;;;6245832;28;20052;-77
2022/09/16 07:25:44;;;;;;;2.83;2.63;;;;;;;;;;6267185;28;20009;-77
2022/09/16 07:28:45;;;;;;;1.52;1.52;;;;;;;;;;6265653;28;20013;-78
2022/09/16 07:31:46;;;;;;;3.03;2.35;;;;;;;;;;6272990;28;20055;-77
2022/09/16 07:34:46;;;;;;;1.27;1.17;;;;;;;;;;6269022;28;20013;-78
2022/09/16 07:37:46;;;;;;;3.83;2.67;;;;;;;;;;6268238;28;20361;-77
2022/09/16 07:40:47;;;;;;;0.82;0.82;;;;;;;;;;6244679;28;20013;-77
2022/09/16 07:43:48;;;;;;;4.00;3.70;;;;;;;;;;6244727;28;20021;-77
2022/09/16 07:46:49;;;;;;;3.43;2.33;;;;;;;;;;6264288;28;20025;-77
2022/09/16 07:49:54;;;;;;;0.43;0.43;;;;;;;;;;6265149;28;20396;-78
2022/09/16 07:52:55;;;;;;;2.13;1.80;;;;;;;;;;6266572;28;20029;-78
2022/09/16 07:55:55;;;;;;;2.97;2.77;;;;;;;;;;6251815;28;20023;-78
2022/09/16 07:58:56;;;;;;;3.17;2.40;;;;;;;;;;6245525;28;20407;-78
2022/09/16 08:01:56;;;;;;;0.97;0.97;;;;;;;;;;6266156;28;20315;-78
2022/09/16 08:04:56;;;;;;;1.33;1.23;;;;;;;;;;6271904;28;20378;-77
2022/09/16 08:07:56;;;;;;;2.25;2.15;;;;;;;;;;6269565;28;20017;-77
2022/09/16 08:10:57;;;;;;;3.05;1.70;;;;;;;;;;6260479;28;20021;-77
2022/09/16 08:13:58;;;;;;;5.07;2.65;;;;;;;;;;6273938;28;20430;-77
2022/09/16 08:16:59;;;;;;;7.87;2.23;;;;;;;;;;6250868;28;20009;-77
2022/09/16 08:20:00;;;;;;;2.55;2.25;;;;;;;;;;6246718;28;20484;-77
2022/09/16 08:23:00;;;;;;;3.07;2.30;;;;;;;;;;6244520;28;20070;-78
2022/09/16 08:26:00;;;;;;;2.43;2.33;;;;;;;;;;6254502;28;20052;-78
2022/09/16 08:29:01;;;;;;;0.90;0.80;;;;;;;;;;6257226;28;20020;-78
2022/09/16 08:32:01;;;;;;;1.95;1.83;;;;;;;;;;6266973;28;20079;-78
2022/09/16 08:35:01;;;;;;;0.83;0.80;;;;;;;;;;6262181;28;20137;-77
2022/09/16 08:38:02;;;;;;;2.27;2.13;;;;;;;;;;6261116;28;20492;-78
2022/09/16 08:41:05;;;;;;;2.43;2.27;;;;;;;;;;6241083;28;20076;-77
2022/09/16 08:44:08;;;;;;;3.35;2.88;;;;;;;;;;6264731;28;20564;-78
2022/09/16 08:47:29;;;;;;;5.30;2.17;;;;;;;;;;6257714;28;20017;-77
2022/09/16 08:50:32;;;;;;;2.22;2.03;;;;;;;;;;6219107;28;20032;-77
2022/09/16 08:53:47;;;;;;;1.08;1.08;;;;;;;;;;6250948;28;20020;-77
2022/09/16 08:56:48;;;;;;;2.15;2.05;;;;;;;;;;6251360;28;20100;-77
2022/09/16 08:59:51;;;;;;;0.65;0.63;;;;;;;;;;6270190;28;20075;-77
2022/09/16 09:02:51;;;;;;;3.63;1.77;;;;;;;;;;6269208;28;20004;-77
2022/09/16 09:05:55;;;;;;;3.60;2.25;;;;;;;;;;6263345;28;20423;-77
2022/09/16 09:08:58;;;;;;;2.47;2.38;;;;;;;;;;6265504;28;20024;-77
2022/09/16 09:12:08;;;;;;;1.65;1.55;;;;;;;;;;6265800;28;20021;-77
2022/09/16 09:15:28;;;;;;;3.10;2.88;;;;;;;;;;6268977;28;20101;-77
2022/09/16 09:18:44;;;;;;;2.78;2.22;;;;;;;;;;6266538;28;20407;-78
2022/09/16 09:22:12;;;;;;;3.03;1.40;;;;;;;;;;6265979;28;20067;-77
2022/09/16 09:25:12;;;;;;;1.88;1.77;;;;;;;;;;6240231;28;20033;-77
2022/09/16 09:28:31;;;;;;;2.97;2.72;;;;;;;;;;6265982;28;20032;-77
2022/09/16 09:31:50;;;;;;;2.60;2.22;;;;;;;;;;6263956;28;20048;-77
2022/09/16 09:35:22;;;;;;;0.95;0.95;;;;;;;;;;6262130;28;20323;-77
2022/09/16 09:38:28;;;;;;;2.45;2.33;;;;;;;;;;6199022;28;20485;-77
2022/09/16 09:41:32;;;;;;;3.55;3.08;;;;;;;;;;6261464;28;20025;-78
2022/09/16 09:44:45;;;;;;;4.28;3.92;;;;;;;;;;6260157;28;20047;-77
2022/09/16 09:47:56;;;;;;;3.45;2.63;;;;;;;;;;6247412;28;20052;-78
2022/09/16 09:51:00;;;;;;;1.67;1.57;;;;;;;;;;6259059;28;20362;-78
2022/09/16 09:54:02;;;;;;;1.88;1.77;;;;;;;;;;6266784;28;20283;-78
2022/09/16 09:57:18;;;;;;;3.28;2.95;;;;;;;;;;6277703;28;20017;-78
2022/09/16 10:00:20;;;;;;;1.48;1.48;;;;;;;;;;6270386;28;20465;-78
2022/09/16 10:03:21;;;;;;;5.72;3.15;;;;;;;;;;6263205;28;20529;-78
2022/09/16 10:06:24;;;;;;;1.10;1.03;;;;;;;;;;6258185;28;20032;-77
2022/09/16 10:09:25;;;;;;;0.70;0.70;;;;;;;;;;6272937;28;20029;-77
2022/09/16 10:12:34;;;;;;;0.65;0.65;;;;;;;;;;6251632;28;20074;-78
2022/09/16 10:15:35;;;;;;;1.10;1.02;;;;;;;;;;6266327;28;20025;-78
2022/09/16 10:18:35;;;;;;;1.50;1.40;;;;;;;;;;6269370;28;20078;-79
2022/09/16 10:21:40;;;;;;;2.37;2.10;;;;;;;;;;6263811;28;20115;-78
2022/09/16 10:24:42;;;;;;;2.75;2.33;;;;;;;;;;6264510;28;20021;-78
2022/09/16 10:27:52;;;;;;;0.70;0.70;;;;;;;;;;6254791;28;20025;-78
2022/09/16 10:30:56;;;;;;;0.57;0.43;;;;;;;;;;6278878;28;20432;-78
2022/09/16 10:33:58;;;;;;;1.10;0.70;;;;;;;;;;6254417;28;20033;-78
2022/09/16 10:36:58;;;;;;;;;;;;;;;;;;6256026;28;20009;-78
2022/09/16 10:39:58;;;;;;;1.30;1.23;;;;;;;;;;6270441;28;19940;-78
2022/09/16 10:43:02;;;;;;;4.80;1.97;;;;;;;;;;6278257;28;20096;-78
2022/09/16 10:46:03;;;;;;;0.35;0.35;;;;;;;;;;6263245;28;20013;-78
2022/09/16 10:49:11;;;;;;;1.40;1.17;;;;;;;;;;6255516;28;20009;-78
2022/09/16 10:52:14;;;;;;;0.20;0.20;;;;;;;;;;6278023;28;20017;-78
2022/09/16 10:55:22;;;;;;;0.82;0.82;;;;;;;;;;6267449;28;20059;-79
2022/09/16 10:58:23;;;;;;;0.63;0.63;;;;;;;;;;6258877;28;20023;-78
2022/09/16 11:01:29;;;;;;;0.85;0.85;;;;;;;;;;6261317;28;20408;-78
2022/09/16 11:04:44;;;;;;;0.55;0.47;;;;;;;;;;6268723;28;20032;-78
2022/09/16 11:07:56;;;;;;;0.90;0.90;;;;;;;;;;6272544;28;20029;-80
2022/09/16 11:11:10;;;;;;;0.73;0.73;;;;;;;;;;6267312;28;20097;-78
2022/09/16 11:14:10;;;;;;;0.40;0.40;;;;;;;;;;6276085;28;20028;-78
2022/09/16 11:17:25;;;;;;;0.88;0.88;;;;;;;;;;6266585;28;20029;-78
2022/09/16 11:20:35;;;;;;;0.32;0.32;;;;;;;;;;6264547;28;20105;-78
2022/09/16 11:23:44;;;;;;;0.77;0.77;;;;;;;;;;6252731;28;20423;-78
2022/09/16 11:26:53;;;;;;;0.75;0.63;;;;;;;;;;6263379;28;20013;-79
2022/09/16 11:29:57;;;;;;;1.55;1.10;;;;;;;;;;6254792;28;20434;-79
2022/09/16 11:33:12;;;;;;;0.25;0.25;;;;;;;;;;6261964;28;20122;-78
2022/09/16 11:36:19;;;;;;;0.38;0.38;;;;;;;;;;6274250;28;20021;-79
2022/09/16 11:39:19;;;;;;;0.77;0.77;;;;;;;;;;6251301;28;20467;-79
2022/09/16 11:42:52;;;;;;;2.65;1.30;;;;;;;;;;6286303;28;20412;-78
2022/09/16 11:46:06;;;;;;;1.65;0.60;;;;;;;;;;6206132;28;20377;-79
2022/09/16 11:49:16;;;;;;;0.47;0.45;;;;;;;;;;6267266;28;20017;-79
2022/09/16 11:52:25;;;;;;;8.27;1.25;;;;;;;;;;6270641;28;20096;-79
2022/09/16 11:55:32;;;;;;;1.80;1.10;;;;;;;;;;6273192;28;20472;-78
2022/09/16 11:58:38;;;;;;;0.60;0.57;;;;;;;;;;6260710;28;20047;-79
2022/09/16 12:01:41;;;;;;;0.98;0.95;;;;;;;;;;6266460;28;20009;-79
2022/09/16 12:04:44;;;;;;;0.77;0.77;;;;;;;;;;6279323;28;20052;-79
2022/09/16 12:07:49;;;;;;;0.22;0.22;;;;;;;;;;6268207;28;20021;-79
2022/09/16 12:11:08;;;;;;;0.70;0.70;;;;;;;;;;6271950;28;20096;-79
2022/09/16 12:14:14;;;;;;;2.35;1.98;;;;;;;;;;6252669;28;20025;-79
2022/09/16 12:17:19;;;;;;;0.80;0.80;;;;;;;;;;6281291;28;20072;-79
2022/09/16 12:20:23;;;;;;;0.82;0.82;;;;;;;;;;6266534;28;20028;-79
2022/09/16 12:23:27;;;;;;;1.25;1.08;;;;;;;;;;6251616;28;20029;-79
2022/09/16 12:26:30;;;;;;;0.75;0.65;;;;;;;;;;6244081;28;20044;-78
2022/09/16 12:29:55;;;;;;;0.85;0.55;;;;;;;;;;6278148;28;20021;-80
2022/09/16 12:33:16;;;;;;;0.30;0.30;;;;;;;;;;6255189;28;20500;-79
2022/09/16 12:36:19;;;;;;;1.27;1.17;;;;;;;;;;6247471;28;20064;-79
2022/09/16 12:39:19;;;;;;;2.15;1.67;;;;;;;;;;6273607;28;20251;-79
2022/09/16 12:42:49;;;;;;;0.98;0.75;;;;;;;;;;6251034;28;20723;-79
2022/09/16 12:46:04;;;;;;;0.57;0.52;;;;;;;;;;6227135;28;20028;-80
2022/09/16 12:49:23;;;;;;;6.18;2.10;;;;;;;;;;6273714;28;20031;-78
2022/09/16 12:52:32;;;;;;;1.38;1.20;;;;;;;;;;6283228;28;20020;-79
2022/09/16 12:55:38;;;;;;;3.53;1.65;;;;;;;;;;6272127;28;20020;-79
2022/09/16 12:58:50;;;;;;;1.50;1.45;;;;;;;;;;6266564;28;20657;-79
2022/09/16 13:01:54;;;;;;;0.68;0.68;;;;;;;;;;6261808;28;20078;-79
2022/09/16 13:04:57;;;;;;;1.38;1.23;;;;;;;;;;6248765;28;20032;-79
2022/09/16 13:07:59;;;;;;;0.65;0.65;;;;;;;;;;6267573;28;20021;-79
2022/09/16 13:11:02;;;;;;;0.40;0.40;;;;;;;;;;6270577;28;20104;-79
2022/09/16 13:14:02;;;;;;;0.70;0.70;;;;;;;;;;6255103;28;20053;-79
2022/09/16 13:17:02;;;;;;;0.67;0.67;;;;;;;;;;6279005;28;20043;-80
2022/09/16 13:20:07;;;;;;;2.53;1.40;;;;;;;;;;6279796;28;20490;-79
2022/09/16 13:23:12;;;;;;;0.57;0.40;;;;;;;;;;6260020;28;20009;-80
2022/09/16 13:26:13;;;;;;;8.48;2.60;;;;;;;;;;6264155;28;20031;-79
2022/09/16 13:29:24;;;;;;;0.82;0.77;;;;;;;;;;6247058;28;20017;-80
2022/09/16 13:32:25;;;;;;;0.82;0.80;;;;;;;;;;6261735;28;20049;-79
2022/09/16 13:35:52;;;;;;;0.20;0.20;;;;;;;;;;6257691;28;20476;-79
2022/09/16 13:38:54;;;;;;;1.70;0.93;;;;;;;;;;6223888;28;20033;-79
2022/09/16 13:41:55;;;;;;;0.28;0.28;;;;;;;;;;6250402;28;20547;-79
2022/09/16 13:44:55;;;;;;;0.57;0.57;;;;;;;;;;6248162;28;20017;-79
2022/09/16 13:47:55;;;;;;;0.40;0.40;;;;;;;;;;6259516;28;20021;-78
2022/09/16 13:50:59;;;;;;;0.17;0.17;;;;;;;;;;6267316;28;20079;-80
2022/09/16 13:54:02;;;;;;;0.20;0.20;;;;;;;;;;6246464;28;20369;-79
2022/09/16 13:57:02;;;;;;;0.30;0.28;;;;;;;;;;6262378;28;20013;-80
2022/09/16 14:00:08;;;;;;;1.23;0.60;;;;;;;;;;6271448;28;20048;-80
2022/09/16 14:03:28;;;;;;;0.60;0.60;;;;;;;;;;6262244;28;20025;-80
2022/09/16 14:06:43;;;;;;;4.88;2.15;;;;;;;;;;6273309;28;20017;-79
2022/09/16 14:09:50;;;;;;;2.20;2.05;;;;;;;;;;6265634;28;20025;-79
2022/09/16 14:12:56;;;;;;;1.55;1.55;;;;;;;;;;6254340;28;20087;-79
2022/09/16 14:15:57;;;;;;;1.10;1.10;;;;;;;;;;6250391;28;20056;-80
2022/09/16 14:19:15;;;;;;;0.43;0.43;;;;;;;;;;6260678;28;20013;-79
2022/09/16 14:22:17;;;;;;;0.47;0.47;;;;;;;;;;6262214;28;20468;-80
2022/09/16 14:25:28;;;;;;;0.82;0.80;;;;;;;;;;6278002;28;20024;-80
2022/09/16 14:28:28;;;;;;;1.00;0.68;;;;;;;;;;6254770;28;20021;-79
2022/09/16 14:31:29;;;;;;;0.68;0.68;;;;;;;;;;6268882;28;20048;-79
2022/09/16 14:34:32;;;;;;;0.20;0.20;;;;;;;;;;6265824;28;20087;-79
2022/09/16 14:37:33;;;;;;;0.35;0.35;;;;;;;;;;6283749;28;20147;-79
2022/09/16 14:40:37;;;;;;;0.43;0.43;;;;;;;;;;6265497;28;20018;-79
2022/09/16 14:43:38;;;;;;;0.57;0.57;;;;;;;;;;6264663;28;20341;-80
2022/09/16 14:46:40;;;;;;;0.20;0.20;;;;;;;;;;6270786;28;20390;-79
2022/09/16 14:49:41;;;;;;;0.30;0.30;;;;;;;;;;6261846;28;20013;-79
2022/09/16 14:52:51;;;;;;;3.58;0.57;;;;;;;;;;6262103;28;20025;-79
2022/09/16 14:55:51;;;;;;;0.10;0.10;;;;;;;;;;6267824;28;20411;-79
2022/09/16 14:58:52;;;;;;;0.30;0.30;;;;;;;;;;6283137;28;20052;-78
2022/09/16 15:01:54;;;;;;;0.63;0.50;;;;;;;;;;6274364;28;20017;-78
2022/09/16 15:05:06;;;;;;;1.42;1.20;;;;;;;;;;6256855;28;20059;-79
2022/09/16 15:08:18;;;;;;;2.17;2.08;;;;;;;;;;6273117;28;20045;-79
2022/09/16 15:11:18;;;;;;;;;;;;;;;;;;6253189;28;20104;-79
2022/09/16 15:14:19;;;;;;;4.15;1.65;;;;;;;;;;6263230;28;19961;-79
2022/09/16 15:17:21;;;;;;;0.73;0.73;;;;;;;;;;6284227;28;20024;-79
2022/09/16 15:20:23;;;;;;;0.57;0.57;;;;;;;;;;6268513;28;20032;-79
2022/09/16 15:23:25;;;;;;;1.00;1.00;;;;;;;;;;6250883;28;20024;-79
2022/09/16 15:26:28;;;;;;;0.90;0.90;;;;;;;;;;6255676;28;20120;-79
2022/09/16 15:29:30;;;;;;;1.85;1.75;;;;;;;;;;6277875;28;20021;-79
2022/09/16 15:32:41;;;;;;;0.40;0.40;;;;;;;;;;6264013;28;20024;-79
2022/09/16 15:35:47;;;;;;;0.50;0.50;;;;;;;;;;6267503;28;20021;-79
2022/09/16 15:38:55;;;;;;;0.10;0.10;;;;;;;;;;6252392;28;20450;-79
2022/09/16 15:42:15;;;;;;;1.02;1.00;;;;;;;;;;6266975;28;20042;-80
2022/09/16 15:45:18;;;;;;;3.05;0.90;;;;;;;;;;6261130;28;20024;-79
2022/09/16 15:48:19;;;;;;;2.63;1.17;;;;;;;;;;6269293;28;20108;-79
2022/09/16 15:51:19;;;;;;;0.75;0.75;;;;;;;;;;6263553;28;20016;-79
2022/09/16 15:54:22;;;;;;;2.35;1.65;;;;;;;;;;6280209;28;20032;-80
2022/09/16 15:57:29;;;;;;;2.83;1.15;;;;;;;;;;6256348;28;20031;-79
2022/09/16 16:00:49;;;;;;;0.30;0.30;;;;;;;;;;6264045;28;20436;-78
2022/09/16 16:03:52;;;;;;;1.35;1.30;;;;;;;;;;6266986;28;20037;-79
2022/09/16 16:07:02;;;;;;;0.38;0.38;;;;;;;;;;6253806;28;20548;-79
2022/09/16 16:10:13;;;;;;;3.08;1.42;;;;;;;;;;6275001;28;20033;-79
2022/09/16 16:13:14;;;;;;;0.80;0.80;;;;;;;;;;6250825;28;20107;-79
2022/09/16 16:16:14;;;;;;;2.40;2.10;;;;;;;;;;6267420;28;20044;-79
2022/09/16 16:19:15;;;;;;;0.83;0.83;;;;;;;;;;6249024;28;20017;-79
2022/09/16 16:22:16;;;;;;;0.70;0.70;;;;;;;;;;6255019;28;20123;-79
2022/09/16 16:25:16;;;;;;;4.28;1.35;;;;;;;;;;6265091;28;20024;-79
2022/09/16 16:28:16;;;;;;;0.67;0.67;;;;;;;;;;6271058;28;20020;-81
2022/09/16 16:31:17;;;;;;;0.33;0.33;;;;;;;;;;6256974;28;20044;-80
2022/09/16 16:34:17;;;;;;;0.73;0.73;;;;;;;;;;6282652;28;20415;-79
2022/09/16 16:37:18;;;;;;;12.95;3.03;;;;;;;;;;6289575;28;20050;-79
2022/09/16 16:40:18;;;;;;;1.30;1.23;;;;;;;;;;6280144;28;20025;-80
2022/09/16 16:43:18;;;;;;;2.10;1.70;;;;;;;;;;6261711;28;20021;-79
2022/09/16 16:46:19;;;;;;;4.03;3.67;;;;;;;;;;6262289;28;20098;-79
2022/09/16 16:49:19;;;;;;;1.20;1.13;;;;;;;;;;6271388;28;20385;-80
2022/09/16 16:52:19;;;;;;;0.30;0.30;;;;;;;;;;6268790;28;20560;-79
2022/09/16 16:55:20;;;;;;;0.83;0.83;;;;;;;;;;6268708;28;20107;-80
2022/09/16 16:58:20;;;;;;;1.42;1.33;;;;;;;;;;6262535;28;20023;-80
2022/09/16 17:01:20;;;;;;;2.33;1.70;;;;;;;;;;6270328;28;20461;-80
2022/09/16 17:04:23;;;;;;;0.75;0.75;;;;;;;;;;6271188;28;20409;-79
2022/09/16 17:07:23;;;;;;;0.75;0.75;;;;;;;;;;6261738;28;20017;-80
2022/09/16 17:10:25;;;;;;;1.93;0.60;;;;;;;;;;6286228;28;20025;-80
2022/09/16 17:13:25;;;;;;;;;;;;;;;;;;6267953;28;20381;-80
2022/09/16 17:16:27;;;;;;;0.75;0.75;;;;;;;;;;6269102;28;20292;-80
2022/09/16 17:19:27;;;;;;;0.60;0.60;;;;;;;;;;6254801;28;20076;-79
2022/09/16 17:22:27;;;;;;;1.50;0.97;;;;;;;;;;6272035;28;20025;-79
2022/09/16 17:25:28;;;;;;;2.53;2.10;;;;;;;;;;6267564;28;20111;-79
2022/09/16 17:28:28;;;;;;;0.73;0.73;;;;;;;;;;6238684;28;20030;-79
2022/09/16 17:31:31;;;;;;;0.30;0.30;;;;;;;;;;6248164;28;20131;-79
2022/09/16 17:34:31;;;;;;;1.48;1.25;;;;;;;;;;6252882;28;20025;-79
2022/09/16 17:37:31;;;;;;;0.87;0.87;;;;;;;;;;6268112;28;20059;-79
2022/09/16 17:40:31;;;;;;;0.57;0.57;;;;;;;;;;6246799;28;20457;-80
2022/09/16 17:43:32;;;;;;;1.40;1.00;;;;;;;;;;6266214;28;20570;-80
2022/09/16 17:46:32;;;;;;;0.70;0.70;;;;;;;;;;6264631;28;20025;-79
2022/09/16 17:49:33;;;;;;;0.47;0.47;;;;;;;;;;6251842;28;20103;-80
2022/09/16 17:52:33;;;;;;;0.27;0.27;;;;;;;;;;6267623;28;20029;-79
2022/09/16 17:55:33;;;;;;;2.00;1.85;;;;;;;;;;6263975;28;20021;-79
2022/09/16 17:58:34;;;;;;;2.53;2.00;;;;;;;;;;6263268;28;20024;-79
2022/09/16 18:01:34;;;;;;;2.53;2.33;;;;;;;;;;6247726;28;20028;-79
2022/09/16 18:04:34;;;;;;;2.43;1.00;;;;;;;;;;6268038;28;20492;-79
2022/09/16 18:07:34;;;;;;;0.47;0.47;;;;;;;;;;6252284;28;20539;-78
2022/09/16 18:10:35;;;;;;;0.10;0.10;;;;;;;;;;6271456;28;20048;-80
2022/09/16 18:13:35;;;;;;;0.83;0.80;;;;;;;;;;6271706;28;20029;-79
2022/09/16 18:16:35;;;;;;;0.83;0.83;;;;;;;;;;6251667;28;20037;-79
2022/09/16 18:19:35;;;;;;;3.73;2.10;;;;;;;;;;6257686;28;20028;-79
2022/09/16 18:22:36;;;;;;;1.05;0.88;;;;;;;;;;6269022;28;20025;-79
2022/09/16 18:25:37;;;;;;;0.63;0.63;;;;;;;;;;6267076;28;20396;-79